Hauptseite
METAR-TAF:

METAR-TAF

Flughäfen :

MoD Boscombe Down

Boscombe Down, England

Breite: 51-10N, Länge: 001-45W, Höhe: 124 m

Beobachtung

Neuester Wetterbericht von vor 42 Minuten, um 15:20 UTC
Wind 9 kt aus Nord
Temperatur 12°C
Luftfeuchtigkeit 76%
Luftdruck 1020 hPa
Sichtweite 10 km oder mehr
Leicht bewölkt in der Höhe von 2000 ft
Durchbrochene Bewölkung in der Höhe von 5000 ft

METAR: EGDM 211520Z 35009KT 9999 FEW020 BKN050 12/08 Q1020 NOSIG RMK BLU BLU

Zeit: 17:02 (16:02 UTC)

Prognose

Neuester Wetterbericht von vor 2 Stunden und 13 Minuten, um 13:49 UTC
Gültige Prognose vom 21 um 15 UTC bis 21 um 18 UTC
Wind 10 kt aus Nord
Sichtweite 10 km oder mehr
Aufgelockert bewölkt in der Höhe von 2000 ft
Zeitweise
vom 21 um 15 UTC bis 21 um 18 UTC
Leicht bewölkt in der Höhe von 2000 ft
Durchbrochene Bewölkung in der Höhe von 4000 ft

TAF: EGDM 211349Z 2115/2118 01010KT 9999 SCT020 TEMPO 2115/2118 FEW020 BKN040

Wetterbeobachtungen und Prognosen von mehr als 4000 Flughäfen (METAR und TAF Bericht).

Die verfügbaren Stationen werden durch gelbe und rote Markierungen auf der Karte dargestellt.

Führen Sie die Maus auf sie, um den Namen der Station zu sehen.

Darauf klicken, um die Beobachtung von Wetterbeobachtungen und Prognosen zu sehen.

Um die Karte zu ändern : klicken Sie auf den grünen Tasten mit einem schwarzen Kreuz Zum Vergrößern, auf den grünen Button mit einem Gedankenstrich zu verkleinern, oder auf die grünen Pfeile für benachbarte Karten.


METAR-TAF: